createdAt,value
2022-08-03T00:00:17.735Z,22.50
2022-08-03T00:03:10.384Z,22.20
2022-08-03T00:06:05.109Z,24.90
2022-08-03T00:08:58.432Z,27.10
2022-08-03T00:11:50.840Z,25.60
2022-08-03T00:14:44.454Z,26.00
2022-08-03T00:17:52.341Z,26.80
2022-08-03T00:20:46.085Z,24.20
2022-08-03T00:23:51.837Z,25.20
2022-08-03T00:26:47.352Z,25.10
2022-08-03T00:29:59.488Z,22.50
2022-08-03T00:32:54.926Z,23.70
2022-08-03T00:35:51.041Z,23.70
2022-08-03T00:38:43.380Z,23.20
2022-08-03T00:41:35.672Z,22.90
2022-08-03T00:44:27.909Z,23.80
2022-08-03T00:47:20.043Z,25.20
2022-08-03T00:50:13.860Z,25.80
2022-08-03T00:53:07.942Z,26.10
2022-08-03T00:56:01.431Z,26.10
2022-08-03T00:58:58.146Z,23.90
2022-08-03T01:01:50.394Z,24.40
2022-08-03T01:04:42.887Z,24.60
2022-08-03T01:07:47.335Z,24.10
2022-08-03T01:10:50.202Z,22.90
2022-08-03T01:14:04.288Z,23.40
2022-08-03T01:17:03.580Z,23.60
2022-08-03T01:19:55.625Z,23.00
2022-08-03T01:23:11.944Z,24.20
2022-08-03T01:26:07.393Z,22.00
2022-08-03T01:29:10.952Z,22.80
2022-08-03T01:32:53.556Z,23.90
2022-08-03T01:35:27.954Z,23.30
2022-08-03T01:38:25.798Z,22.90
2022-08-03T01:41:22.655Z,23.10
2022-08-03T01:44:29.827Z,25.00
2022-08-03T01:47:23.531Z,24.80
2022-08-03T01:50:17.012Z,24.50
2022-08-03T01:53:14.884Z,24.50
2022-08-03T01:56:09.979Z,23.70
2022-08-03T01:59:04.568Z,23.50
2022-08-03T02:02:27.740Z,23.70
2022-08-03T02:05:13.166Z,23.80
2022-08-03T02:08:08.967Z,22.90
2022-08-03T02:11:03.491Z,23.40
2022-08-03T02:13:57.882Z,23.30
2022-08-03T02:16:44.582Z,23.40
2022-08-03T02:19:38.048Z,23.40
2022-08-03T02:22:26.183Z,23.10
2022-08-03T02:25:19.608Z,22.60
2022-08-03T02:28:18.654Z,25.20
2022-08-03T02:31:19.188Z,26.20
2022-08-03T02:34:17.796Z,25.70
2022-08-03T02:37:11.842Z,25.10
2022-08-03T02:40:09.128Z,22.90
2022-08-03T02:43:06.568Z,23.30
2022-08-03T02:45:58.943Z,22.20
2022-08-03T02:48:53.322Z,22.10
2022-08-03T02:51:48.589Z,23.40
2022-08-03T02:54:41.872Z,22.40
2022-08-03T02:57:36.347Z,23.90
2022-08-03T03:00:28.054Z,22.30
2022-08-03T03:03:22.030Z,22.10
2022-08-03T03:06:15.238Z,22.30
2022-08-03T03:09:07.896Z,22.90
2022-08-03T03:12:00.710Z,21.70
2022-08-03T03:14:53.038Z,24.20
2022-08-03T03:17:46.695Z,25.20
2022-08-03T03:20:42.403Z,24.90
2022-08-03T03:23:36.499Z,22.60
2022-08-03T03:26:29.172Z,22.50
2022-08-03T03:29:22.343Z,21.60
2022-08-03T03:31:54.636Z,21.80
2022-08-03T03:34:47.531Z,22.00
2022-08-03T03:37:40.213Z,21.20
2022-08-03T03:40:32.653Z,21.30
2022-08-03T03:43:26.227Z,20.90
2022-08-03T03:46:18.530Z,20.20
2022-08-03T03:49:11.782Z,20.70
2022-08-03T03:52:04.481Z,20.60
2022-08-03T03:55:00.829Z,22.20
2022-08-03T03:57:53.621Z,23.20
2022-08-03T04:00:46.561Z,23.60
2022-08-03T04:03:39.766Z,21.20
2022-08-03T04:07:04.608Z,20.40
2022-08-03T04:10:16.433Z,19.40
2022-08-03T04:13:11.135Z,20.00
2022-08-03T04:16:04.622Z,19.60
2022-08-03T04:19:03.191Z,19.20
2022-08-03T04:22:00.069Z,19.70
2022-08-03T04:24:56.810Z,20.70
2022-08-03T04:28:19.700Z,19.90
2022-08-03T04:31:09.560Z,20.20
2022-08-03T04:34:03.191Z,20.90
2022-08-03T04:37:01.175Z,19.90
2022-08-03T04:39:51.253Z,21.60
2022-08-03T04:42:45.469Z,22.70
2022-08-03T04:45:40.071Z,24.30
2022-08-03T04:48:32.552Z,22.70
2022-08-03T04:51:28.091Z,20.90
2022-08-03T04:54:16.231Z,20.60
2022-08-03T04:57:08.390Z,19.90
2022-08-03T05:00:04.272Z,20.40
2022-08-03T05:02:56.906Z,20.00
2022-08-03T05:05:50.926Z,19.30
2022-08-03T05:08:46.915Z,20.40
2022-08-03T05:11:41.753Z,19.60
2022-08-03T05:14:34.062Z,20.50
2022-08-03T05:17:26.948Z,21.60
2022-08-03T05:20:19.262Z,22.60
2022-08-03T05:23:11.605Z,23.00
2022-08-03T05:26:04.132Z,20.30
2022-08-03T05:28:56.405Z,20.90
2022-08-03T05:31:48.493Z,20.00
2022-08-03T05:34:40.958Z,21.20
2022-08-03T05:37:32.977Z,20.30
2022-08-03T05:40:25.513Z,21.90
2022-08-03T05:43:19.336Z,20.80
2022-08-03T05:46:13.179Z,21.70
2022-08-03T05:48:54.618Z,21.70
2022-08-03T05:51:47.527Z,22.10
2022-08-03T05:54:56.897Z,22.20
2022-08-03T05:57:50.197Z,22.20
2022-08-03T06:00:42.228Z,21.60
2022-08-03T06:03:34.242Z,21.80
2022-08-03T06:06:30.501Z,21.80
2022-08-03T06:09:24.318Z,23.50
2022-08-03T06:12:36.674Z,23.40
2022-08-03T06:15:28.910Z,26.20
2022-08-03T06:18:21.351Z,23.40
2022-08-03T06:21:15.198Z,22.60
2022-08-03T06:24:00.608Z,23.30
2022-08-03T06:26:55.013Z,22.60
2022-08-03T06:29:47.330Z,23.90
2022-08-03T06:32:39.789Z,23.30
2022-08-03T06:35:32.114Z,24.00
2022-08-03T06:38:27.129Z,24.40
2022-08-03T06:41:20.683Z,24.30
2022-08-03T06:44:05.768Z,25.50
2022-08-03T06:46:58.883Z,25.60
2022-08-03T06:50:14.295Z,28.20
2022-08-03T06:53:04.430Z,28.10
2022-08-03T06:55:56.975Z,25.80
2022-08-03T06:58:49.977Z,25.30
2022-08-03T07:01:42.275Z,25.20
2022-08-03T07:04:34.843Z,26.50
2022-08-03T07:07:20.824Z,25.70
2022-08-03T07:10:13.728Z,26.00
2022-08-03T07:12:59.908Z,25.00
2022-08-03T07:15:55.363Z,25.50
2022-08-03T07:18:49.309Z,24.90
2022-08-03T07:21:41.931Z,25.50
2022-08-03T07:24:34.086Z,26.50
2022-08-03T07:27:30.614Z,26.00
2022-08-03T07:30:22.815Z,25.90
2022-08-03T07:33:16.612Z,24.90
2022-08-03T07:36:00.763Z,25.50
2022-08-03T07:38:53.027Z,23.90
2022-08-03T07:41:44.041Z,22.30
2022-08-03T07:44:36.354Z,22.00
2022-08-03T07:47:34.942Z,23.00
2022-08-03T07:50:28.534Z,21.70
2022-08-03T07:53:20.589Z,21.50
2022-08-03T07:56:13.921Z,20.40
2022-08-03T07:59:06.282Z,19.70
2022-08-03T08:01:58.572Z,19.90
2022-08-03T08:04:51.028Z,18.90
2022-08-03T08:07:43.473Z,19.90
2022-08-03T08:10:37.944Z,19.10
2022-08-03T08:13:22.508Z,16.50
2022-08-03T08:15:54.564Z,16.10
2022-08-03T08:18:26.734Z,13.80
2022-08-03T08:21:19.390Z,14.90
2022-08-03T08:24:18.058Z,15.30
2022-08-03T08:27:12.553Z,14.90
2022-08-03T08:30:11.478Z,12.60
2022-08-03T08:33:05.153Z,10.10
2022-08-03T08:35:57.608Z,11.40
2022-08-03T08:38:50.216Z,10.10
2022-08-03T08:41:45.937Z,8.50
2022-08-03T08:44:39.597Z,9.40
2022-08-03T08:47:51.159Z,6.90
2022-08-03T08:50:29.788Z,5.70
2022-08-03T08:53:17.501Z,5.80
2022-08-03T08:56:10.693Z,5.80
2022-08-03T08:59:04.168Z,6.60
2022-08-03T09:02:00.146Z,6.50
2022-08-03T09:04:52.730Z,7.20
2022-08-03T09:07:45.807Z,6.50
2022-08-03T09:10:38.629Z,6.80
2022-08-03T09:13:31.626Z,7.60
2022-08-03T09:16:24.675Z,7.60
2022-08-03T09:19:18.172Z,6.10
2022-08-03T09:22:10.967Z,6.40
2022-08-03T09:25:24.199Z,6.30
2022-08-03T09:28:58.050Z,6.30
2022-08-03T09:31:37.066Z,6.40
2022-08-03T09:34:29.267Z,4.40
2022-08-03T09:37:28.075Z,3.40
2022-08-03T09:40:40.607Z,2.70
2022-08-03T09:43:48.475Z,3.00
2022-08-03T09:46:52.981Z,3.10
2022-08-03T09:49:57.319Z,1.90
2022-08-03T09:52:52.850Z,2.00
2022-08-03T09:56:36.493Z,3.00
2022-08-03T09:59:05.767Z,4.10
2022-08-03T10:02:00.078Z,4.20
2022-08-03T10:04:53.728Z,3.70
2022-08-03T10:07:47.033Z,3.70
2022-08-03T10:10:45.784Z,3.60
2022-08-03T10:13:39.453Z,2.70
2022-08-03T10:16:37.014Z,2.50
2022-08-03T10:19:29.167Z,2.50
2022-08-03T10:22:23.604Z,3.90
2022-08-03T10:25:17.537Z,3.60
2022-08-03T10:28:14.514Z,3.40
2022-08-03T10:31:08.556Z,3.10
2022-08-03T10:34:03.382Z,3.60
2022-08-03T10:37:01.316Z,3.60
2022-08-03T10:39:57.128Z,3.50
2022-08-03T10:42:50.934Z,4.00
2022-08-03T10:45:35.488Z,4.10
2022-08-03T10:48:18.922Z,3.80
2022-08-03T10:51:12.684Z,3.50
2022-08-03T10:54:05.239Z,3.80
2022-08-03T10:57:20.401Z,4.30
2022-08-03T11:00:06.474Z,3.90
2022-08-03T11:06:19.182Z,4.60
2022-08-03T11:09:21.592Z,5.20
2022-08-03T11:12:29.924Z,5.20
2022-08-03T11:15:36.301Z,5.00
2022-08-03T11:18:28.977Z,4.50
2022-08-03T11:21:21.189Z,5.10
2022-08-03T11:24:33.182Z,4.90
2022-08-03T11:27:27.059Z,5.10
2022-08-03T11:30:27.583Z,5.20
2022-08-03T11:33:32.007Z,4.50
2022-08-03T11:36:32.345Z,4.40
2022-08-03T11:39:38.776Z,4.70
2022-08-03T11:42:47.422Z,4.50
2022-08-03T11:45:40.147Z,4.70
2022-08-03T11:48:20.696Z,4.30
2022-08-03T11:51:25.604Z,4.70
2022-08-03T11:54:23.048Z,4.60
2022-08-03T11:59:01.383Z,4.00
2022-08-03T12:00:41.533Z,4.70
2022-08-03T12:03:36.367Z,4.60
2022-08-03T12:06:28.662Z,4.60
2022-08-03T12:09:21.173Z,4.60
2022-08-03T12:12:06.838Z,4.50
2022-08-03T12:14:59.482Z,3.90
2022-08-03T12:17:55.983Z,4.10
2022-08-03T12:20:51.162Z,4.50
2022-08-03T12:23:37.704Z,4.30
2022-08-03T12:26:32.010Z,4.40
2022-08-03T12:29:25.955Z,4.10
2022-08-03T12:32:19.269Z,4.50
2022-08-03T12:35:12.218Z,4.20
2022-08-03T12:38:04.777Z,4.30
2022-08-03T12:41:13.781Z,4.50
2022-08-03T12:44:08.072Z,4.40
2022-08-03T12:47:00.647Z,4.30
2022-08-03T12:49:54.324Z,3.90
2022-08-03T12:55:57.454Z,4.20
2022-08-03T12:58:51.572Z,4.40
2022-08-03T13:01:54.790Z,4.40
2022-08-03T13:04:40.552Z,4.20
2022-08-03T13:07:45.782Z,4.10
2022-08-03T13:10:38.339Z,4.20
2022-08-03T13:13:44.172Z,4.50
2022-08-03T13:16:36.430Z,4.10
2022-08-03T13:19:29.957Z,4.20
2022-08-03T13:22:23.687Z,4.50
2022-08-03T13:25:07.084Z,4.10
2022-08-03T13:28:03.219Z,4.30
2022-08-03T13:30:58.381Z,4.30
2022-08-03T13:33:50.528Z,4.20
2022-08-03T13:37:07.574Z,3.70
2022-08-03T13:39:59.443Z,3.70
2022-08-03T13:42:52.338Z,3.70
2022-08-03T13:45:49.390Z,3.80
2022-08-03T13:48:43.601Z,3.60
2022-08-03T13:51:36.040Z,3.30
2022-08-03T13:54:27.183Z,3.90
2022-08-03T13:58:04.604Z,3.40
2022-08-03T14:00:32.856Z,3.60
2022-08-03T14:03:17.685Z,3.70
2022-08-03T14:06:10.024Z,3.80
2022-08-03T14:09:02.717Z,3.80
2022-08-03T14:12:07.802Z,3.70
2022-08-03T14:15:01.523Z,4.10
2022-08-03T14:17:54.371Z,4.10
2022-08-03T14:20:54.268Z,3.90
2022-08-03T14:23:48.757Z,3.80
2022-08-03T14:26:40.909Z,3.90
2022-08-03T14:29:33.131Z,3.70
2022-08-03T14:32:13.790Z,4.10
2022-08-03T14:35:07.243Z,4.20
2022-08-03T14:37:59.278Z,3.50
2022-08-03T14:40:52.126Z,4.10
2022-08-03T14:44:01.579Z,3.70
2022-08-03T14:46:54.437Z,3.80
2022-08-03T14:50:37.035Z,3.60
2022-08-03T14:52:58.570Z,4.40
2022-08-03T14:55:51.921Z,3.90
2022-08-03T14:58:44.015Z,4.00
2022-08-03T15:02:04.342Z,4.00
2022-08-03T15:04:48.417Z,3.60
2022-08-03T15:07:40.627Z,3.90
2022-08-03T15:10:15.284Z,3.70
2022-08-03T15:13:07.316Z,4.10
2022-08-03T15:15:59.625Z,3.80
2022-08-03T15:18:51.811Z,3.90
2022-08-03T15:21:46.513Z,3.90
2022-08-03T15:24:39.645Z,3.90
2022-08-03T15:27:31.706Z,3.90
2022-08-03T15:30:23.919Z,4.00
2022-08-03T15:33:16.177Z,3.90
2022-08-03T15:36:01.287Z,3.90
2022-08-03T15:38:54.750Z,4.00
2022-08-03T15:41:39.594Z,4.30
2022-08-03T15:44:32.437Z,3.90
2022-08-03T15:47:24.639Z,4.10
2022-08-03T15:50:09.874Z,3.50
2022-08-03T15:53:02.150Z,4.20
2022-08-03T15:55:54.555Z,4.10
2022-08-03T15:59:09.483Z,4.00
2022-08-03T16:01:59.162Z,3.90
2022-08-03T16:04:52.319Z,4.20
2022-08-03T16:08:04.004Z,4.50
2022-08-03T16:10:57.135Z,4.00
2022-08-03T16:14:13.691Z,3.90
2022-08-03T16:17:02.471Z,3.50
2022-08-03T16:19:55.374Z,3.50
2022-08-03T16:22:50.882Z,3.70
2022-08-03T16:25:49.367Z,3.80
2022-08-03T16:28:41.623Z,3.40
2022-08-03T16:31:33.945Z,3.00
2022-08-03T16:34:26.108Z,3.30
2022-08-03T16:37:37.075Z,3.30
2022-08-03T16:40:22.793Z,3.10
2022-08-03T16:43:17.941Z,3.30
2022-08-03T16:46:11.194Z,3.70
2022-08-03T16:49:03.333Z,3.30
2022-08-03T16:51:55.887Z,3.20
2022-08-03T16:54:52.984Z,3.10
2022-08-03T16:57:59.710Z,3.30
2022-08-03T17:00:51.971Z,4.10
2022-08-03T17:04:01.819Z,3.10
2022-08-03T17:06:56.853Z,3.30
2022-08-03T17:09:38.774Z,3.10
2022-08-03T17:12:22.252Z,3.00
2022-08-03T17:15:18.819Z,3.10
2022-08-03T17:18:17.951Z,2.80
2022-08-03T17:21:16.965Z,3.20
2022-08-03T17:24:19.744Z,2.90
2022-08-03T17:28:41.834Z,3.80
2022-08-03T17:30:21.006Z,3.20
2022-08-03T17:33:20.219Z,3.30
2022-08-03T17:36:08.022Z,3.30
2022-08-03T17:39:00.912Z,3.50
2022-08-03T17:41:55.544Z,4.00
2022-08-03T17:44:49.097Z,3.40
2022-08-03T17:47:43.465Z,3.50
2022-08-03T17:50:43.794Z,3.70
2022-08-03T17:53:44.478Z,3.90
2022-08-03T17:56:44.635Z,3.80
2022-08-03T17:59:50.847Z,3.90
2022-08-03T18:02:47.596Z,3.90
2022-08-03T18:06:10.515Z,4.10
2022-08-03T18:08:55.921Z,4.30
2022-08-03T18:11:44.523Z,4.40
2022-08-03T18:14:57.140Z,4.60
2022-08-03T18:17:55.411Z,4.50
2022-08-03T18:20:54.730Z,5.40
2022-08-03T18:23:51.079Z,5.70
2022-08-03T18:26:48.479Z,6.20
2022-08-03T18:29:36.959Z,6.20
2022-08-03T18:32:31.095Z,6.60
2022-08-03T18:35:26.850Z,7.20
2022-08-03T18:38:42.838Z,7.70
2022-08-03T18:41:44.588Z,11.50
2022-08-03T18:44:54.193Z,9.00
2022-08-03T18:48:00.081Z,8.70
2022-08-03T18:51:01.004Z,8.30
2022-08-03T18:54:03.865Z,11.20
2022-08-03T18:57:01.064Z,10.60
2022-08-03T19:00:00.280Z,11.20
2022-08-03T19:03:02.529Z,11.60
2022-08-03T19:06:08.576Z,11.90
2022-08-03T19:09:19.603Z,12.20
2022-08-03T19:12:30.949Z,9.70
2022-08-03T19:15:37.100Z,8.70
2022-08-03T19:18:43.880Z,8.90
2022-08-03T19:21:26.415Z,9.70
2022-08-03T19:24:23.381Z,10.90
2022-08-03T19:27:27.150Z,10.70
2022-08-03T19:30:39.151Z,9.90
2022-08-03T19:33:55.721Z,11.00
2022-08-03T19:36:49.765Z,8.70
2022-08-03T19:39:43.500Z,7.70
2022-08-03T19:42:41.689Z,8.50
2022-08-03T19:46:04.832Z,7.80
2022-08-03T19:48:58.148Z,8.60
2022-08-03T19:52:02.950Z,8.90
2022-08-03T19:55:02.336Z,8.50
2022-08-03T19:57:57.338Z,8.00
2022-08-03T20:00:49.728Z,7.80
2022-08-03T20:03:43.466Z,7.40
2022-08-03T20:06:36.222Z,6.80
2022-08-03T20:09:30.500Z,7.00
2022-08-03T20:12:13.365Z,7.10
2022-08-03T20:15:07.263Z,7.30
2022-08-03T20:17:56.546Z,7.00
2022-08-03T20:20:55.801Z,7.40
2022-08-03T20:24:00.015Z,6.80
2022-08-03T20:26:57.962Z,7.00
2022-08-03T20:30:04.979Z,6.50
2022-08-03T20:32:31.453Z,7.10
2022-08-03T20:35:24.741Z,7.10
2022-08-03T20:38:17.605Z,7.80
2022-08-03T20:41:12.622Z,7.80
2022-08-03T20:44:05.463Z,7.50
2022-08-03T20:47:00.703Z,8.50
2022-08-03T20:49:53.911Z,8.10
2022-08-03T20:52:49.718Z,7.30
2022-08-03T20:55:47.641Z,7.50
2022-08-03T20:58:50.434Z,7.80
2022-08-03T21:01:44.367Z,7.90
2022-08-03T21:04:37.085Z,8.30
2022-08-03T21:08:03.948Z,9.40
2022-08-03T21:10:52.691Z,9.90
2022-08-03T21:13:52.206Z,9.10
2022-08-03T21:16:48.749Z,8.50
2022-08-03T21:19:51.871Z,8.60
2022-08-03T21:22:47.541Z,8.80
2022-08-03T21:25:42.799Z,7.50
2022-08-03T21:28:36.628Z,7.40
2022-08-03T21:31:29.065Z,8.90
2022-08-03T21:34:12.025Z,8.30
2022-08-03T21:36:54.575Z,8.50
2022-08-03T21:39:50.710Z,8.50
2022-08-03T21:42:45.624Z,9.20
2022-08-03T21:45:45.672Z,8.30
2022-08-03T21:48:41.675Z,8.60
2022-08-03T21:51:36.556Z,8.40
2022-08-03T21:54:34.832Z,8.90
2022-08-03T21:57:30.531Z,8.50
2022-08-03T22:00:24.337Z,9.20
2022-08-03T22:03:17.946Z,8.90
2022-08-03T22:06:19.614Z,9.10
2022-08-03T22:09:12.853Z,9.90
2022-08-03T22:12:05.905Z,10.30
2022-08-03T22:15:01.971Z,10.20
2022-08-03T22:17:55.517Z,10.40
2022-08-03T22:20:53.179Z,10.30
2022-08-03T22:23:48.271Z,9.20
2022-08-03T22:27:05.053Z,9.80
2022-08-03T22:29:58.319Z,8.80
2022-08-03T22:32:44.649Z,9.20
2022-08-03T22:35:47.450Z,9.10
2022-08-03T22:38:42.401Z,9.30
2022-08-03T22:41:34.777Z,9.90
2022-08-03T22:44:27.455Z,9.70
2022-08-03T22:47:23.065Z,9.40
2022-08-03T22:50:31.624Z,9.50
2022-08-03T22:53:10.977Z,9.20
2022-08-03T22:56:04.734Z,8.60
2022-08-03T22:58:54.063Z,8.60
2022-08-03T23:01:48.413Z,8.50
2022-08-03T23:04:42.397Z,8.90
2022-08-03T23:07:38.067Z,9.40
2022-08-03T23:10:36.867Z,10.30
2022-08-03T23:13:32.429Z,9.90
2022-08-03T23:16:29.345Z,10.60
2022-08-03T23:19:28.176Z,10.10
2022-08-03T23:22:27.686Z,9.80
2022-08-03T23:25:22.811Z,9.50
2022-08-03T23:28:05.660Z,9.40
2022-08-03T23:30:59.866Z,9.90
2022-08-03T23:34:16.474Z,9.60
2022-08-03T23:37:10.795Z,10.10
2022-08-03T23:40:04.865Z,10.60
2022-08-03T23:42:59.096Z,9.70
2022-08-03T23:45:53.096Z,10.20
2022-08-03T23:48:48.414Z,9.80
2022-08-03T23:51:50.801Z,10.60
2022-08-03T23:54:54.061Z,10.10
2022-08-03T23:58:02.163Z,10.60
